• Join FlightAware (Why Join?)
  • Login
  • US Flag 
07:28AM EDT


 

Airport Tracker/Info


-or-


 

Live Flight TrackerFlight Track Log ✈ IRO8578 ✈ 10-Dec-2013 ✈ KMKE - KSAW

Flight Track Log - Related Links

Times and Time Zones

All times are in EST time to prevent confusion due to time zone crossing. See the IRO8578 flight status page for this flight to view local times or setup timezone preferences in your user account.

Time Position Orientation Groundspeed Altitude Reporting Facility
EST Latitude Longitude Course Direction KTS MPH feet Rate Location/Type
09:11AM 42.9333 -87.9333 270° West 107 123 1,300  Level KMKE
09:12AM 42.9333 -87.9833 270° West 93 107 2,800 1,020 Climbing KMKE
09:13AM 42.9500 -87.9833 360° North 110 127 3,900 900 Climbing KMKE
09:14AM 42.9833 -88.0000 340° North 99 114 4,600 660 Climbing KMKE
09:15AM 43.0000 -88.0167 324° Northwest 108 124 5,200 660 Climbing KMKE
09:16AM 43.0333 -88.0167 360° North 125 144 6,000 780 Climbing KMKE
09:17AM 43.0667 -88.0167 360° North 125 144 6,700 660 Climbing KMKE
09:18AM 43.0864 -88.0078 18° North 128 147 7,000 120 Climbing Chicago Center
09:19AM 43.1231 -88.0033 North 127 146 6,900 -60 Descending Chicago Center
09:20AM 43.1667 -87.9969 North 137 158 6,900  Level Chicago Center
09:21AM 43.2192 -87.9881 North 147 169 7,000  Climbing Chicago Center
09:22AM 43.2636 -87.9808 North 153 176 7,000  Level Chicago Center
09:23AM 43.3089 -87.9717 North 158 182 7,000  Level Chicago Center
09:24AM 43.3558 -87.9642 North 162 186 7,000  Level Chicago Center
09:25AM 43.4019 -87.9550 North 165 190 7,000  Level Chicago Center
09:26AM 43.4464 -87.9472 North 164 189 7,000  Level Chicago Center
09:27AM 43.5017 -87.9378 North 165 190 7,000  Level Chicago Center
09:28AM 43.5464 -87.9294 North 164 189 7,000  Level Chicago Center
09:29AM 43.5908 -87.9200 North 163 188 7,000  Level Chicago Center
09:30AM 43.6344 -87.9122 North 162 186 7,000 -60 Level Chicago Center
09:31AM 43.6786 -87.9061 North 160 184 6,900 -60 Descending Chicago Center
09:32AM 43.7242 -87.8989 North 162 186 6,900  Level Chicago Center
09:33AM 43.7769 -87.8881 North 162 186 6,900  Level Chicago Center
09:34AM 43.8208 -87.8808 North 161 185 6,900  Level Chicago Center
09:35AM 43.8639 -87.8717 North 159 183 6,900  Level Chicago Center
09:36AM 43.9081 -87.8625 North 160 184 6,900  Level Chicago Center
09:37AM 43.9522 -87.8558 North 159 183 6,900  Level Chicago Center
09:38AM 43.9964 -87.8481 North 160 184 6,900  Level Chicago Center
09:39AM 44.0478 -87.8392 North 158 182 6,900  Level Chicago Center
09:40AM 44.0906 -87.8308 North 156 180 6,900  Level Chicago Center
09:41AM 44.1367 -87.8208 North 159 183 6,900  Level Minneapolis Center
09:42AM 44.1806 -87.8128 North 160 184 6,900  Level Minneapolis Center
09:43AM 44.2236 -87.8044 North 157 181 6,900  Level Minneapolis Center
09:44AM 44.2675 -87.7972 North 159 183 6,900  Level Minneapolis Center
09:45AM 44.3108 -87.7892 North 158 182 6,900  Level Minneapolis Center
09:47AM 44.3556 -87.7819 North 160 184 6,900  Level Minneapolis Center
09:48AM 44.3983 -87.7731 North 158 182 6,900  Level Minneapolis Center
09:49AM 44.4506 -87.7631 North 157 181 6,900  Level Minneapolis Center
09:50AM 44.4911 -87.7553 North 156 180 6,900  Level Minneapolis Center
09:51AM 44.5356 -87.7478 North 158 182 6,900  Level Minneapolis Center
09:52AM 44.5800 -87.7394 North 161 185 6,900  Level Minneapolis Center
09:53AM 44.6236 -87.7300 North 159 183 6,900  Level Minneapolis Center
09:54AM 44.6781 -87.7200 North 162 186 6,900  Level Minneapolis Center
09:55AM 44.7217 -87.7111 North 159 183 6,900  Level Minneapolis Center
09:56AM 44.7661 -87.7036 North 161 185 6,900  Level Minneapolis Center
09:57AM 44.8103 -87.6961 North 159 183 6,900  Level Minneapolis Center
09:58AM 44.8542 -87.6867 North 160 184 6,900  Level Minneapolis Center
09:59AM 44.8992 -87.6789 North 161 185 6,900  Level Minneapolis Center
10:00AM 44.9431 -87.6711 North 160 184 6,900  Level Minneapolis Center
10:01AM 44.9964 -87.6608 North 160 184 6,900  Level Minneapolis Center
10:02AM 45.0406 -87.6522 North 160 184 6,900  Level Minneapolis Center
10:03AM 45.0864 -87.6433 North 164 189 6,900  Level Minneapolis Center
10:04AM 45.1314 -87.6339 North 164 189 6,900  Level Minneapolis Center
10:05AM 45.1758 -87.6261 North 162 186 6,900  Level Minneapolis Center
10:06AM 45.2214 -87.6186 North 163 188 6,900 -60 Level Minneapolis Center
10:07AM 45.2669 -87.6094 North 165 190 6,800 -60 Descending Minneapolis Center
10:08AM 45.3128 -87.5989 North 167 192 6,800  Level Minneapolis Center
10:09AM 45.3661 -87.5892 North 162 186 6,800  Level Minneapolis Center
10:10AM 45.4100 -87.5806 North 160 184 6,800  Level Minneapolis Center
10:11AM 45.4544 -87.5706 North 163 188 6,800  Level Minneapolis Center
10:12AM 45.4983 -87.5636 North 160 184 6,800  Level Minneapolis Center
10:13AM 45.5428 -87.5700 354° North 155 178 6,900  Climbing Minneapolis Center
10:14AM 45.5894 -87.5703 360° North 153 176 6,900  Level Minneapolis Center
10:15AM 45.6347 -87.5581 11° North 162 186 6,900  Level Minneapolis Center
10:16AM 45.6806 -87.5461 10° North 162 186 6,900  Level Minneapolis Center
10:17AM 45.7261 -87.5353 North 164 189 6,900  Level Minneapolis Center
10:18AM 45.7719 -87.5275 North 163 188 6,900  Level Minneapolis Center
10:19AM 45.8192 -87.5161 10° North 167 192 6,900  Level Minneapolis Center
10:20AM 45.8658 -87.5044 10° North 169 194 6,900  Level Minneapolis Center
10:21AM 45.9122 -87.4950 North 167 192 6,900  Level Minneapolis Center
10:22AM 45.9594 -87.4844 North 168 193 6,900  Level Minneapolis Center
10:23AM 46.0061 -87.4744 North 167 192 6,900  Level Minneapolis Center
10:25AM 46.0536 -87.4642 North 170 196 6,900 -120 Level Minneapolis Center
10:26AM 46.0983 -87.4539 North 162 186 6,700 -840 Descending Minneapolis Center
10:27AM 46.1447 -87.4428 North 154 177 5,300 -1,080 Descending Minneapolis Center
10:28AM 46.1883 -87.4328 North 155 178 4,500 -900 Descending Minneapolis Center
10:29AM 46.2286 -87.4233 North 146 168 3,500 -960 Descending Minneapolis Center
10:30AM 46.2683 -87.4144 North 143 165 2,600 -840 Descending Minneapolis Center
10:31AM 46.3094 -87.4056 North 146 168 1,800 -780 Descending Minneapolis Center
10:33AM 46.3500 -87.3833 North  Level FlightAware Approximate